createdAt,value
2022-09-17T00:01:23.712Z,99.90
2022-09-17T00:03:53.803Z,99.90
2022-09-17T00:06:24.029Z,99.90
2022-09-17T00:08:53.447Z,99.90
2022-09-17T00:11:22.986Z,99.90
2022-09-17T00:13:52.646Z,99.90
2022-09-17T00:16:27.206Z,99.90
2022-09-17T00:18:55.886Z,99.90
2022-09-17T00:21:25.852Z,99.90
2022-09-17T00:23:57.438Z,99.90
2022-09-17T00:26:25.855Z,99.90
2022-09-17T00:28:55.454Z,99.90
2022-09-17T00:31:24.650Z,99.90
2022-09-17T00:33:53.264Z,99.90
2022-09-17T00:36:21.769Z,99.90
2022-09-17T00:38:52.499Z,99.90
2022-09-17T00:41:21.088Z,99.90
2022-09-17T00:43:51.944Z,99.90
2022-09-17T00:46:26.881Z,99.90
2022-09-17T00:48:58.852Z,99.90
2022-09-17T00:51:31.802Z,99.90
2022-09-17T00:54:03.896Z,99.90
2022-09-17T00:56:35.806Z,99.90
2022-09-17T00:59:04.372Z,99.90
2022-09-17T01:01:34.951Z,99.90
2022-09-17T01:04:03.529Z,99.90
2022-09-17T01:06:35.952Z,99.90
2022-09-17T01:09:27.728Z,99.90
2022-09-17T01:12:29.516Z,99.90
2022-09-17T01:15:15.131Z,99.90
2022-09-17T01:17:50.010Z,99.90
2022-09-17T01:20:46.529Z,99.90
2022-09-17T01:23:40.293Z,99.90
2022-09-17T01:26:32.788Z,99.90
2022-09-17T01:29:13.819Z,99.90
2022-09-17T01:31:51.091Z,99.90
2022-09-17T01:34:27.245Z,99.90
2022-09-17T01:37:11.991Z,99.90
2022-09-17T01:39:47.791Z,99.90
2022-09-17T01:42:19.746Z,99.90
2022-09-17T01:44:54.345Z,99.90
2022-09-17T01:47:28.416Z,99.90
2022-09-17T01:50:02.383Z,99.90
2022-09-17T01:52:33.925Z,99.90
2022-09-17T01:55:06.943Z,99.90
2022-09-17T01:57:39.063Z,99.90
2022-09-17T02:00:11.082Z,99.90
2022-09-17T02:02:45.472Z,99.90
2022-09-17T02:05:20.014Z,99.90
2022-09-17T02:07:53.641Z,99.90
2022-09-17T02:10:24.478Z,99.90
2022-09-17T02:12:58.014Z,99.90
2022-09-17T02:15:30.264Z,99.90
2022-09-17T02:18:05.907Z,99.90
2022-09-17T02:20:40.743Z,99.90
2022-09-17T02:23:14.055Z,99.90
2022-09-17T02:25:49.225Z,99.90
2022-09-17T02:28:25.354Z,99.90
2022-09-17T02:30:53.370Z,99.90
2022-09-17T02:33:24.563Z,99.90
2022-09-17T02:35:52.668Z,99.90
2022-09-17T02:38:26.647Z,99.90
2022-09-17T02:41:04.961Z,99.90
2022-09-17T02:43:39.563Z,99.90
2022-09-17T02:46:21.825Z,99.90
2022-09-17T02:49:19.635Z,99.90
2022-09-17T02:51:57.634Z,99.90
2022-09-17T02:54:30.828Z,99.90
2022-09-17T02:57:06.086Z,99.90
2022-09-17T02:59:42.444Z,99.90
2022-09-17T03:02:18.858Z,99.90
2022-09-17T03:04:50.360Z,99.90
2022-09-17T03:07:20.737Z,99.90
2022-09-17T03:09:48.749Z,99.90
2022-09-17T03:12:17.449Z,99.90
2022-09-17T03:14:45.354Z,99.90
2022-09-17T03:17:14.836Z,99.90
2022-09-17T03:19:42.788Z,99.90
2022-09-17T03:22:12.530Z,99.90
2022-09-17T03:24:40.668Z,99.90
2022-09-17T03:27:08.591Z,99.90
2022-09-17T03:29:36.626Z,99.90
2022-09-17T03:32:05.561Z,99.90
2022-09-17T03:34:33.570Z,99.90
2022-09-17T03:37:02.251Z,99.90
2022-09-17T03:39:31.863Z,99.90
2022-09-17T03:41:59.726Z,99.90
2022-09-17T03:44:27.602Z,99.90
2022-09-17T03:46:55.602Z,99.90
2022-09-17T03:49:24.884Z,99.90
2022-09-17T03:51:52.773Z,99.90
2022-09-17T03:54:20.763Z,99.90
2022-09-17T03:56:50.055Z,99.90
2022-09-17T03:59:18.106Z,99.90
2022-09-17T04:01:46.089Z,99.90
2022-09-17T04:04:14.103Z,99.90
2022-09-17T04:06:41.946Z,99.90
2022-09-17T04:09:09.852Z,99.90
2022-09-17T04:11:37.733Z,99.90
2022-09-17T04:14:06.989Z,99.90
2022-09-17T04:16:34.987Z,99.90
2022-09-17T04:19:04.224Z,99.90
2022-09-17T04:21:32.170Z,99.90
2022-09-17T04:24:00.091Z,99.90
2022-09-17T04:26:27.973Z,99.90
2022-09-17T04:28:56.044Z,99.90
2022-09-17T04:31:27.065Z,99.90
2022-09-17T04:33:55.273Z,99.90
2022-09-17T04:36:23.164Z,99.90
2022-09-17T04:38:51.405Z,99.90
2022-09-17T04:41:19.408Z,99.90
2022-09-17T04:43:47.466Z,99.90
2022-09-17T04:46:16.791Z,99.90
2022-09-17T04:48:46.158Z,99.90
2022-09-17T04:51:14.021Z,99.90
2022-09-17T04:53:41.957Z,99.90
2022-09-17T04:56:09.855Z,99.90
2022-09-17T04:58:37.741Z,99.90
2022-09-17T05:01:05.799Z,99.90
2022-09-17T05:03:33.715Z,99.90
2022-09-17T05:06:02.959Z,99.90
2022-09-17T05:08:30.924Z,99.90
2022-09-17T05:10:58.893Z,99.90
2022-09-17T05:13:26.725Z,99.90
2022-09-17T05:15:56.470Z,99.90
2022-09-17T05:18:24.485Z,99.90
2022-09-17T05:20:52.431Z,99.90
2022-09-17T05:23:21.832Z,99.90
2022-09-17T05:25:49.705Z,99.90
2022-09-17T05:28:17.578Z,99.90
2022-09-17T05:30:45.497Z,99.90
2022-09-17T05:33:13.385Z,99.90
2022-09-17T05:35:43.092Z,99.90
2022-09-17T05:38:11.218Z,99.90
2022-09-17T05:40:40.440Z,99.90
2022-09-17T05:43:08.739Z,99.90
2022-09-17T05:45:37.514Z,99.90
2022-09-17T05:48:07.646Z,99.90
2022-09-17T05:50:35.558Z,99.90
2022-09-17T05:53:06.155Z,99.90
2022-09-17T05:55:35.133Z,99.90
2022-09-17T05:58:11.102Z,99.90
2022-09-17T06:00:39.436Z,99.90
2022-09-17T06:03:07.315Z,99.90
2022-09-17T06:05:35.477Z,99.90
2022-09-17T06:08:04.098Z,99.90
2022-09-17T06:10:32.342Z,99.90
2022-09-17T06:13:01.019Z,99.90
2022-09-17T06:15:30.328Z,99.90
2022-09-17T06:17:58.438Z,99.90
2022-09-17T06:20:26.359Z,99.90
2022-09-17T06:22:58.047Z,99.90
2022-09-17T06:25:27.410Z,99.90
2022-09-17T06:27:55.395Z,99.90
2022-09-17T06:30:23.338Z,99.90
2022-09-17T06:32:52.604Z,99.90
2022-09-17T06:35:20.670Z,99.90
2022-09-17T06:37:48.864Z,99.90
2022-09-17T06:40:17.658Z,99.90
2022-09-17T06:42:45.645Z,99.90
2022-09-17T06:45:16.724Z,99.90
2022-09-17T06:47:44.972Z,99.90
2022-09-17T06:50:14.395Z,99.90
2022-09-17T06:52:49.481Z,99.90
2022-09-17T06:55:17.909Z,99.90
2022-09-17T06:57:45.852Z,99.90
2022-09-17T07:00:15.326Z,99.90
2022-09-17T07:02:43.323Z,99.90
2022-09-17T07:05:11.287Z,99.90
2022-09-17T07:07:40.788Z,99.90
2022-09-17T07:10:09.576Z,99.90
2022-09-17T07:12:45.468Z,99.90
2022-09-17T07:15:16.303Z,99.90
2022-09-17T07:17:45.142Z,99.90
2022-09-17T07:20:13.576Z,99.90
2022-09-17T07:22:42.769Z,99.90
2022-09-17T07:25:12.099Z,99.90
2022-09-17T07:27:40.084Z,99.90
2022-09-17T07:30:09.292Z,99.90
2022-09-17T07:32:37.180Z,99.90
2022-09-17T07:35:05.707Z,99.90
2022-09-17T07:37:33.817Z,99.90
2022-09-17T07:40:03.605Z,99.90
2022-09-17T07:42:31.874Z,99.90
2022-09-17T07:45:01.999Z,99.90
2022-09-17T07:47:30.271Z,99.90
2022-09-17T07:49:58.094Z,99.90
2022-09-17T07:52:25.982Z,99.90
2022-09-17T07:54:53.860Z,99.90
2022-09-17T07:57:23.193Z,99.90
2022-09-17T07:59:51.124Z,99.90
2022-09-17T08:02:23.812Z,99.90
2022-09-17T08:04:52.217Z,99.90
2022-09-17T08:07:20.203Z,99.90
2022-09-17T08:09:48.053Z,99.90
2022-09-17T08:12:17.007Z,99.90
2022-09-17T08:14:46.247Z,99.90
2022-09-17T08:17:14.109Z,99.90
2022-09-17T08:19:42.854Z,99.90
2022-09-17T08:22:10.699Z,99.90
2022-09-17T08:24:38.535Z,99.90
2022-09-17T08:27:06.486Z,99.90
2022-09-17T08:29:35.384Z,99.90
2022-09-17T08:32:04.941Z,99.90
2022-09-17T08:34:32.857Z,99.90
2022-09-17T08:37:00.880Z,99.90
2022-09-17T08:39:29.598Z,99.90
2022-09-17T08:42:09.855Z,99.90
2022-09-17T08:44:42.965Z,99.90
2022-09-17T08:47:18.456Z,99.90
2022-09-17T08:49:51.799Z,99.90
2022-09-17T08:52:42.820Z,99.90
2022-09-17T08:55:25.388Z,99.90
2022-09-17T08:58:01.581Z,99.90
2022-09-17T09:00:33.620Z,99.90
2022-09-17T09:03:18.504Z,99.90
2022-09-17T09:05:48.701Z,99.90
2022-09-17T09:08:26.869Z,99.90
2022-09-17T09:10:58.190Z,99.90
2022-09-17T09:13:29.883Z,99.90
2022-09-17T09:16:02.462Z,99.90
2022-09-17T09:18:35.754Z,99.90
2022-09-17T09:21:15.552Z,99.90
2022-09-17T09:23:53.695Z,99.90
2022-09-17T09:26:23.811Z,99.90
2022-09-17T09:29:13.359Z,99.90
2022-09-17T09:32:02.005Z,99.90
2022-09-17T09:34:34.938Z,99.90
2022-09-17T09:37:13.286Z,97.70
2022-09-17T09:39:46.065Z,96.60
2022-09-17T09:42:20.393Z,96.60
2022-09-17T09:44:48.486Z,96.60
2022-09-17T09:47:41.330Z,95.20
2022-09-17T09:50:23.603Z,88.10
2022-09-17T09:53:00.541Z,58.40
2022-09-17T09:55:58.453Z,44.90
2022-09-17T09:58:32.478Z,37.30
2022-09-17T10:01:00.626Z,30.50
2022-09-17T10:03:32.092Z,26.70
2022-09-17T10:06:03.929Z,23.00
2022-09-17T10:08:34.041Z,19.20
2022-09-17T10:11:04.067Z,18.90
2022-09-17T10:13:35.575Z,19.60
2022-09-17T10:16:18.867Z,21.10
2022-09-17T10:18:47.883Z,23.80
2022-09-17T10:21:22.421Z,25.10
2022-09-17T10:23:51.554Z,24.70
2022-09-17T10:26:25.483Z,24.80
2022-09-17T10:28:56.534Z,23.60
2022-09-17T10:31:24.662Z,22.10
2022-09-17T10:33:58.365Z,21.50
2022-09-17T10:36:42.849Z,22.00
2022-09-17T10:39:28.147Z,21.30
2022-09-17T10:41:56.878Z,19.60
2022-09-17T10:44:26.915Z,19.40
2022-09-17T10:46:55.914Z,19.10
2022-09-17T10:49:35.266Z,17.90
2022-09-17T10:52:12.702Z,18.60
2022-09-17T10:55:09.977Z,20.60
2022-09-17T10:58:11.534Z,22.00
2022-09-17T11:00:46.485Z,21.10
2022-09-17T11:04:00.662Z,19.60
2022-09-17T11:07:15.105Z,19.70
2022-09-17T11:09:54.007Z,22.30
2022-09-17T11:12:31.618Z,23.60
2022-09-17T11:15:07.544Z,23.20
2022-09-17T11:18:16.707Z,22.60
2022-09-17T11:21:00.224Z,21.90
2022-09-17T11:23:58.210Z,21.60
2022-09-17T11:26:33.918Z,21.10
2022-09-17T11:29:13.599Z,21.20
2022-09-17T11:32:00.341Z,22.10
2022-09-17T11:34:35.080Z,22.80
2022-09-17T11:37:10.386Z,23.10
2022-09-17T11:39:44.893Z,23.90
2022-09-17T11:42:20.206Z,25.70
2022-09-17T11:44:52.859Z,27.20
2022-09-17T11:47:27.058Z,28.40
2022-09-17T11:50:01.025Z,30.00
2022-09-17T11:52:36.008Z,32.70
2022-09-17T11:55:10.737Z,39.50
2022-09-17T11:57:41.208Z,43.60
2022-09-17T12:00:16.110Z,48.50
2022-09-17T12:02:53.836Z,54.70
2022-09-17T12:05:26.030Z,72.10
2022-09-17T12:07:57.698Z,86.10
2022-09-17T12:10:42.450Z,91.70
2022-09-17T12:13:27.964Z,94.80
2022-09-17T12:16:07.561Z,96.80
2022-09-17T12:18:49.331Z,97.90
2022-09-17T12:21:22.595Z,99.40
2022-09-17T12:23:55.544Z,99.90
2022-09-17T12:26:35.492Z,99.90
2022-09-17T12:29:12.392Z,99.90
2022-09-17T12:31:48.546Z,99.90
2022-09-17T12:34:34.272Z,99.90
2022-09-17T12:37:09.903Z,99.90
2022-09-17T12:40:06.211Z,99.90
2022-09-17T12:43:10.439Z,99.90
2022-09-17T12:45:57.223Z,99.90
2022-09-17T12:48:45.217Z,99.90
2022-09-17T12:51:26.772Z,99.90
2022-09-17T12:54:07.107Z,99.90
2022-09-17T12:56:50.412Z,99.90
2022-09-17T12:59:20.764Z,99.90
2022-09-17T13:01:53.979Z,99.90
2022-09-17T13:05:01.047Z,99.90
2022-09-17T13:07:51.412Z,99.90
2022-09-17T13:10:37.952Z,99.90
2022-09-17T13:13:26.047Z,99.90
2022-09-17T13:16:02.324Z,99.90
2022-09-17T13:18:41.427Z,99.90
2022-09-17T13:21:14.179Z,99.90
2022-09-17T13:23:44.754Z,99.90
2022-09-17T13:26:17.192Z,99.90
2022-09-17T13:28:47.932Z,99.90
2022-09-17T13:31:24.034Z,99.90
2022-09-17T13:33:57.248Z,99.90
2022-09-17T13:36:55.589Z,99.90
2022-09-17T13:39:44.590Z,99.90
2022-09-17T13:42:18.981Z,99.90
2022-09-17T13:44:49.917Z,99.90
2022-09-17T13:47:24.434Z,99.90
2022-09-17T13:49:58.378Z,99.90
2022-09-17T13:52:39.496Z,99.90
2022-09-17T13:55:08.811Z,99.90
2022-09-17T13:57:49.880Z,99.90
2022-09-17T14:00:50.850Z,99.90
2022-09-17T14:03:50.767Z,99.90
2022-09-17T14:06:48.642Z,99.90
2022-09-17T14:09:46.014Z,99.90
2022-09-17T14:12:51.645Z,99.90
2022-09-17T14:16:01.810Z,99.90
2022-09-17T14:18:46.226Z,99.90
2022-09-17T14:21:28.337Z,99.90
2022-09-17T14:23:58.979Z,99.90
2022-09-17T14:26:40.722Z,99.90
2022-09-17T14:29:21.376Z,99.90
2022-09-17T14:31:49.496Z,99.90
2022-09-17T14:34:23.404Z,99.90
2022-09-17T14:36:53.986Z,99.90
2022-09-17T14:39:24.211Z,99.90
2022-09-17T14:41:54.083Z,99.90
2022-09-17T14:44:23.726Z,99.90
2022-09-17T14:46:57.859Z,99.90
2022-09-17T14:49:28.349Z,99.90
2022-09-17T14:51:57.487Z,99.90
2022-09-17T14:54:27.164Z,99.90
2022-09-17T14:57:00.570Z,99.90
2022-09-17T14:59:42.856Z,99.90
2022-09-17T15:02:30.228Z,99.90
2022-09-17T15:05:00.146Z,99.90
2022-09-17T15:07:28.678Z,99.90
2022-09-17T15:10:07.870Z,99.90
2022-09-17T15:12:36.831Z,99.90
2022-09-17T15:15:05.263Z,99.90
2022-09-17T15:17:34.392Z,99.90
2022-09-17T15:20:07.875Z,99.90
2022-09-17T15:22:40.424Z,99.90
2022-09-17T15:25:11.345Z,99.90
2022-09-17T15:27:41.820Z,99.90
2022-09-17T15:30:14.837Z,99.90
2022-09-17T15:32:49.133Z,99.90
2022-09-17T15:35:23.275Z,99.90
2022-09-17T15:40:41.973Z,99.90
2022-09-17T15:43:19.563Z,99.90
2022-09-17T15:45:47.434Z,99.90
2022-09-17T15:48:34.714Z,99.90
2022-09-17T15:51:06.885Z,99.90
2022-09-17T15:53:36.388Z,99.90
2022-09-17T15:56:08.054Z,99.90
2022-09-17T15:58:52.094Z,99.90
2022-09-17T16:01:56.102Z,99.90
2022-09-17T16:04:26.618Z,99.90
2022-09-17T16:06:59.070Z,99.90
2022-09-17T16:09:48.843Z,99.90
2022-09-17T16:12:19.520Z,99.90
2022-09-17T16:14:50.868Z,99.90
2022-09-17T16:17:25.687Z,99.90
2022-09-17T16:19:54.783Z,99.90
2022-09-17T16:22:24.402Z,99.90
2022-09-17T16:24:52.323Z,99.90
2022-09-17T16:27:24.714Z,99.90
2022-09-17T16:29:56.379Z,99.90
2022-09-17T16:32:24.348Z,99.90
2022-09-17T16:34:52.162Z,99.90
2022-09-17T16:37:20.076Z,99.90
2022-09-17T16:39:49.622Z,99.90
2022-09-17T16:42:17.634Z,99.90
2022-09-17T16:44:45.458Z,99.90
2022-09-17T16:47:13.390Z,99.90
2022-09-17T16:49:41.274Z,99.90
2022-09-17T16:52:09.226Z,99.90
2022-09-17T16:54:37.194Z,99.90
2022-09-17T16:57:06.580Z,99.90
2022-09-17T16:59:34.450Z,99.90
2022-09-17T17:02:02.333Z,99.90
2022-09-17T17:04:30.307Z,99.90
2022-09-17T17:06:58.180Z,99.90
2022-09-17T17:09:26.156Z,99.90
2022-09-17T17:11:54.084Z,99.90
2022-09-17T17:14:23.348Z,99.90
2022-09-17T17:16:51.617Z,99.90
2022-09-17T17:19:19.487Z,99.90
2022-09-17T17:21:47.448Z,99.90
2022-09-17T17:24:15.460Z,99.90
2022-09-17T17:26:43.323Z,99.90
2022-09-17T17:29:11.403Z,99.90
2022-09-17T17:31:43.043Z,99.90
2022-09-17T17:34:11.041Z,99.90
2022-09-17T17:36:38.992Z,99.90
2022-09-17T17:39:06.938Z,99.90
2022-09-17T17:41:35.474Z,99.90
2022-09-17T17:44:03.742Z,99.90
2022-09-17T17:46:31.639Z,99.90
2022-09-17T17:49:01.022Z,99.90
2022-09-17T17:51:29.037Z,99.90
2022-09-17T17:53:56.976Z,99.90
2022-09-17T17:56:24.901Z,99.90
2022-09-17T17:58:57.724Z,99.90
2022-09-17T18:01:27.378Z,99.90
2022-09-17T18:03:58.303Z,99.90
2022-09-17T18:06:28.836Z,99.90
2022-09-17T18:08:57.432Z,99.90
2022-09-17T18:11:25.379Z,99.90
2022-09-17T18:13:54.842Z,99.90
2022-09-17T18:16:23.959Z,99.90
2022-09-17T18:18:51.912Z,99.90
2022-09-17T18:21:22.357Z,99.90
2022-09-17T18:23:52.091Z,99.90
2022-09-17T18:26:21.613Z,99.90
2022-09-17T18:28:50.221Z,99.90
2022-09-17T18:31:23.188Z,99.90
2022-09-17T18:33:51.780Z,99.90
2022-09-17T18:36:19.623Z,99.90
2022-09-17T18:38:47.472Z,99.90
2022-09-17T18:41:16.730Z,99.90
2022-09-17T18:43:44.677Z,99.90
2022-09-17T18:46:12.564Z,99.90
2022-09-17T18:48:41.214Z,99.90
2022-09-17T18:51:12.198Z,99.90
2022-09-17T18:53:40.341Z,99.90
2022-09-17T18:56:13.828Z,99.90
2022-09-17T18:58:43.450Z,99.90
2022-09-17T19:01:11.422Z,99.90
2022-09-17T19:03:39.376Z,99.90
2022-09-17T19:06:10.165Z,99.90
2022-09-17T19:08:39.015Z,99.90
2022-09-17T19:11:07.422Z,99.90
2022-09-17T19:13:37.280Z,99.90
2022-09-17T19:16:08.029Z,99.90
2022-09-17T19:18:37.002Z,99.90
2022-09-17T19:21:06.844Z,99.90
2022-09-17T19:23:35.112Z,99.90
2022-09-17T19:26:07.616Z,99.90
2022-09-17T19:28:35.696Z,99.90
2022-09-17T19:31:06.661Z,99.90
2022-09-17T19:33:34.618Z,99.90
2022-09-17T19:36:03.601Z,99.90
2022-09-17T19:38:31.815Z,99.90
2022-09-17T19:41:00.781Z,99.90
2022-09-17T19:43:28.847Z,99.90
2022-09-17T19:46:05.039Z,99.90
2022-09-17T19:48:35.704Z,99.90
2022-09-17T19:51:04.691Z,99.90
2022-09-17T19:53:33.515Z,99.90
2022-09-17T19:56:01.382Z,99.90
2022-09-17T19:58:29.270Z,99.90
2022-09-17T20:00:57.831Z,99.90
2022-09-17T20:03:26.799Z,99.90
2022-09-17T20:06:01.143Z,99.90
2022-09-17T20:08:29.620Z,99.90
2022-09-17T20:10:57.631Z,99.90
2022-09-17T20:13:26.247Z,99.90
2022-09-17T20:15:54.182Z,99.90
2022-09-17T20:18:23.597Z,99.90
2022-09-17T20:20:51.682Z,99.90
2022-09-17T20:23:20.909Z,99.90
2022-09-17T20:25:52.834Z,99.90
2022-09-17T20:28:20.920Z,99.90
2022-09-17T20:30:48.850Z,99.90
2022-09-17T20:33:19.945Z,99.90
2022-09-17T20:35:50.173Z,99.90
2022-09-17T20:39:09.561Z,99.90
2022-09-17T20:41:09.835Z,99.90
2022-09-17T20:43:39.691Z,99.90
2022-09-17T20:46:09.264Z,99.90
2022-09-17T20:48:38.004Z,99.90
2022-09-17T20:51:07.986Z,99.90
2022-09-17T20:53:37.379Z,99.90
2022-09-17T20:56:08.784Z,99.90
2022-09-17T20:58:39.724Z,99.90
2022-09-17T21:01:09.500Z,99.90
2022-09-17T21:03:38.638Z,99.90
2022-09-17T21:06:07.413Z,99.90
2022-09-17T21:08:35.419Z,99.90
2022-09-17T21:11:05.263Z,99.90
2022-09-17T21:13:36.595Z,99.90
2022-09-17T21:16:04.618Z,99.90
2022-09-17T21:18:38.749Z,99.90
2022-09-17T21:21:09.156Z,99.90
2022-09-17T21:23:40.895Z,99.90
2022-09-17T21:26:12.276Z,99.90
2022-09-17T21:28:43.006Z,99.90
2022-09-17T21:31:13.807Z,99.90
2022-09-17T21:33:43.620Z,99.90
2022-09-17T21:36:13.284Z,99.90
2022-09-17T21:38:42.079Z,99.90
2022-09-17T21:41:12.515Z,99.90
2022-09-17T21:43:43.035Z,99.90
2022-09-17T21:46:13.073Z,99.90
2022-09-17T21:48:44.964Z,99.90
2022-09-17T21:51:16.071Z,99.90
2022-09-17T21:53:44.261Z,99.90
2022-09-17T21:56:13.573Z,99.90
2022-09-17T21:58:44.332Z,99.90
2022-09-17T22:01:14.366Z,99.90
2022-09-17T22:03:43.459Z,99.90
2022-09-17T22:06:13.457Z,99.90
2022-09-17T22:08:41.740Z,99.90
2022-09-17T22:11:13.256Z,99.90
2022-09-17T22:13:43.458Z,99.90
2022-09-17T22:16:11.430Z,99.90
2022-09-17T22:18:39.591Z,99.90
2022-09-17T22:21:14.673Z,99.90
2022-09-17T22:23:42.622Z,99.90
2022-09-17T22:26:10.615Z,99.90
2022-09-17T22:28:38.637Z,99.90
2022-09-17T22:31:09.944Z,99.90
2022-09-17T22:33:40.239Z,99.90
2022-09-17T22:36:10.089Z,99.90
2022-09-17T22:38:38.557Z,99.90
2022-09-17T22:41:08.619Z,99.90
2022-09-17T22:43:36.834Z,99.90
2022-09-17T22:46:13.047Z,99.90
2022-09-17T22:48:41.385Z,99.90
2022-09-17T22:51:09.594Z,99.90
2022-09-17T22:53:38.676Z,99.90
2022-09-17T22:56:09.239Z,99.90
2022-09-17T22:58:37.355Z,99.90
2022-09-17T23:01:07.057Z,99.90
2022-09-17T23:03:36.372Z,99.90
2022-09-17T23:06:06.332Z,99.90
2022-09-17T23:08:34.535Z,99.90
2022-09-17T23:11:02.761Z,99.90
2022-09-17T23:13:31.248Z,99.90
2022-09-17T23:16:01.748Z,99.90
2022-09-17T23:18:29.739Z,99.90
2022-09-17T23:21:00.295Z,99.90
2022-09-17T23:23:28.501Z,99.90
2022-09-17T23:25:56.839Z,99.90
2022-09-17T23:28:24.740Z,99.90
2022-09-17T23:30:52.642Z,99.90
2022-09-17T23:33:22.902Z,99.90
2022-09-17T23:35:51.046Z,99.90
2022-09-17T23:38:20.329Z,99.90
2022-09-17T23:40:48.532Z,99.90
2022-09-17T23:43:16.426Z,99.90
2022-09-17T23:45:44.481Z,99.90
2022-09-17T23:48:12.360Z,99.90
2022-09-17T23:50:40.220Z,99.90
2022-09-17T23:53:08.139Z,99.90
2022-09-17T23:55:37.574Z,99.90
2022-09-17T23:58:05.497Z,99.90
